sensor_id;sensor_type;location;lat;lon;timestamp;pressure;altitude;pressure_sealevel;temperature;humidity
9774;BME280;4926;42.670;23.316;2023-01-29T00:02:17;94643.25;;;0.52;100.00
9774;BME280;4926;42.670;23.316;2023-01-29T00:04:45;94629.94;;;0.53;100.00
9774;BME280;4926;42.670;23.316;2023-01-29T00:07:20;94647.88;;;0.68;100.00
9774;BME280;4926;42.670;23.316;2023-01-29T00:09:50;94649.81;;;0.72;100.00
9774;BME280;4926;42.670;23.316;2023-01-29T00:12:16;94656.22;;;0.76;100.00
9774;BME280;4926;42.670;23.316;2023-01-29T00:14:43;94666.69;;;0.76;100.00
9774;BME280;4926;42.670;23.316;2023-01-29T00:17:10;94653.94;;;0.80;100.00
9774;BME280;4926;42.670;23.316;2023-01-29T00:19:39;94665.53;;;0.72;100.00
9774;BME280;4926;42.670;23.316;2023-01-29T00:22:08;94665.06;;;0.75;100.00
9774;BME280;4926;42.670;23.316;2023-01-29T00:24:35;94661.34;;;0.83;100.00
9774;BME280;4926;42.670;23.316;2023-01-29T00:27:01;94661.44;;;0.76;100.00
9774;BME280;4926;42.670;23.316;2023-01-29T00:29:30;94668.28;;;0.77;100.00
9774;BME280;4926;42.670;23.316;2023-01-29T00:31:58;94666.22;;;0.79;100.00
9774;BME280;4926;42.670;23.316;2023-01-29T00:34:27;94675.13;;;0.78;100.00
9774;BME280;4926;42.670;23.316;2023-01-29T00:36:53;94666.94;;;0.86;100.00
9774;BME280;4926;42.670;23.316;2023-01-29T00:39:30;94667.41;;;0.83;100.00
9774;BME280;4926;42.670;23.316;2023-01-29T00:42:03;94666.09;;;0.74;100.00
9774;BME280;4926;42.670;23.316;2023-01-29T00:44:48;94663.50;;;0.74;100.00
9774;BME280;4926;42.670;23.316;2023-01-29T00:47:25;94674.56;;;0.76;100.00
9774;BME280;4926;42.670;23.316;2023-01-29T00:49:58;94666.88;;;0.63;100.00
9774;BME280;4926;42.670;23.316;2023-01-29T00:52:28;94667.78;;;0.57;100.00
9774;BME280;4926;42.670;23.316;2023-01-29T00:54:59;94664.13;;;0.58;100.00
9774;BME280;4926;42.670;23.316;2023-01-29T01:00:39;94670.97;;;0.59;100.00
9774;BME280;4926;42.670;23.316;2023-01-29T01:03:11;94664.25;;;0.63;100.00
9774;BME280;4926;42.670;23.316;2023-01-29T01:05:40;94666.34;;;0.73;100.00
9774;BME280;4926;42.670;23.316;2023-01-29T01:08:18;94671.69;;;0.66;100.00
9774;BME280;4926;42.670;23.316;2023-01-29T01:11:05;94666.09;;;0.63;100.00
9774;BME280;4926;42.670;23.316;2023-01-29T01:13:32;94667.66;;;0.64;100.00
9774;BME280;4926;42.670;23.316;2023-01-29T01:15:59;94667.66;;;0.64;100.00
9774;BME280;4926;42.670;23.316;2023-01-29T01:18:28;94665.97;;;0.69;100.00
9774;BME280;4926;42.670;23.316;2023-01-29T01:20:56;94658.59;;;0.66;100.00
9774;BME280;4926;42.670;23.316;2023-01-29T01:23:23;94660.75;;;0.69;100.00
9774;BME280;4926;42.670;23.316;2023-01-29T01:25:54;94662.78;;;0.67;100.00
9774;BME280;4926;42.670;23.316;2023-01-29T01:28:25;94653.28;;;0.55;100.00
9774;BME280;4926;42.670;23.316;2023-01-29T01:30:52;94664.56;;;0.55;100.00
9774;BME280;4926;42.670;23.316;2023-01-29T01:33:19;94654.63;;;0.46;100.00
9774;BME280;4926;42.670;23.316;2023-01-29T01:35:45;94657.47;;;0.44;100.00
9774;BME280;4926;42.670;23.316;2023-01-29T01:38:12;94655.53;;;0.40;100.00
9774;BME280;4926;42.670;23.316;2023-01-29T01:40:43;94669.41;;;0.40;100.00
9774;BME280;4926;42.670;23.316;2023-01-29T01:43:10;94661.63;;;0.34;100.00
9774;BME280;4926;42.670;23.316;2023-01-29T01:45:38;94666.81;;;0.40;100.00
9774;BME280;4926;42.670;23.316;2023-01-29T01:48:10;94665.53;;;0.43;100.00
9774;BME280;4926;42.670;23.316;2023-01-29T01:50:41;94661.97;;;0.37;100.00
9774;BME280;4926;42.670;23.316;2023-01-29T01:53:11;94669.78;;;0.44;100.00
9774;BME280;4926;42.670;23.316;2023-01-29T01:55:43;94672.59;;;0.42;100.00
9774;BME280;4926;42.670;23.316;2023-01-29T01:58:15;94675.66;;;0.39;100.00
9774;BME280;4926;42.670;23.316;2023-01-29T02:00:44;94667.91;;;0.33;100.00
9774;BME280;4926;42.670;23.316;2023-01-29T02:03:11;94680.84;;;0.28;100.00
9774;BME280;4926;42.670;23.316;2023-01-29T02:05:58;94690.06;;;0.30;100.00
9774;BME280;4926;42.670;23.316;2023-01-29T02:08:48;94684.25;;;0.28;100.00
9774;BME280;4926;42.670;23.316;2023-01-29T02:11:34;94668.41;;;0.23;100.00
9774;BME280;4926;42.670;23.316;2023-01-29T02:14:01;94684.56;;;0.20;100.00
9774;BME280;4926;42.670;23.316;2023-01-29T02:16:32;94678.75;;;0.18;100.00
9774;BME280;4926;42.670;23.316;2023-01-29T02:18:59;94679.47;;;0.25;100.00
9774;BME280;4926;42.670;23.316;2023-01-29T02:21:50;94685.28;;;0.27;100.00
9774;BME280;4926;42.670;23.316;2023-01-29T02:24:52;94686.34;;;0.38;100.00
9774;BME280;4926;42.670;23.316;2023-01-29T02:27:26;94676.38;;;0.46;100.00
9774;BME280;4926;42.670;23.316;2023-01-29T02:30:02;94681.69;;;0.40;100.00
9774;BME280;4926;42.670;23.316;2023-01-29T02:32:38;94689.59;;;0.51;100.00
9774;BME280;4926;42.670;23.316;2023-01-29T02:35:25;94701.69;;;0.52;100.00
9774;BME280;4926;42.670;23.316;2023-01-29T02:38:10;94694.38;;;0.54;100.00
9774;BME280;4926;42.670;23.316;2023-01-29T02:40:42;94691.97;;;0.53;100.00
9774;BME280;4926;42.670;23.316;2023-01-29T02:43:21;94705.31;;;0.51;100.00
9774;BME280;4926;42.670;23.316;2023-01-29T02:46:00;94699.63;;;0.54;100.00
9774;BME280;4926;42.670;23.316;2023-01-29T02:48:41;94697.59;;;0.56;100.00
9774;BME280;4926;42.670;23.316;2023-01-29T02:51:16;94703.63;;;0.57;100.00
9774;BME280;4926;42.670;23.316;2023-01-29T02:53:49;94701.38;;;0.60;100.00
9774;BME280;4926;42.670;23.316;2023-01-29T02:56:23;94697.22;;;0.53;100.00
9774;BME280;4926;42.670;23.316;2023-01-29T02:59:02;94703.13;;;0.48;100.00
9774;BME280;4926;42.670;23.316;2023-01-29T03:01:35;94698.84;;;0.54;100.00
9774;BME280;4926;42.670;23.316;2023-01-29T03:04:08;94703.97;;;0.60;100.00
9774;BME280;4926;42.670;23.316;2023-01-29T03:06:42;94708.88;;;0.57;100.00
9774;BME280;4926;42.670;23.316;2023-01-29T03:09:14;94703.28;;;0.53;100.00
9774;BME280;4926;42.670;23.316;2023-01-29T03:11:53;94697.59;;;0.56;100.00
9774;BME280;4926;42.670;23.316;2023-01-29T03:14:31;94708.00;;;0.63;100.00
9774;BME280;4926;42.670;23.316;2023-01-29T03:17:32;94703.53;;;0.63;100.00
9774;BME280;4926;42.670;23.316;2023-01-29T03:20:05;94708.06;;;0.56;100.00
9774;BME280;4926;42.670;23.316;2023-01-29T03:22:35;94702.81;;;0.56;100.00
9774;BME280;4926;42.670;23.316;2023-01-29T03:25:07;94714.81;;;0.64;100.00
9774;BME280;4926;42.670;23.316;2023-01-29T03:27:55;94714.72;;;0.70;100.00
9774;BME280;4926;42.670;23.316;2023-01-29T03:30:43;94714.28;;;0.73;100.00
9774;BME280;4926;42.670;23.316;2023-01-29T03:33:31;94719.97;;;0.70;100.00
9774;BME280;4926;42.670;23.316;2023-01-29T03:36:05;94719.97;;;0.70;100.00
9774;BME280;4926;42.670;23.316;2023-01-29T03:38:35;94703.28;;;0.53;100.00
9774;BME280;4926;42.670;23.316;2023-01-29T03:41:05;94711.88;;;0.72;100.00
9774;BME280;4926;42.670;23.316;2023-01-29T03:43:36;94715.63;;;0.64;100.00
9774;BME280;4926;42.670;23.316;2023-01-29T03:46:12;94714.84;;;0.75;100.00
9774;BME280;4926;42.670;23.316;2023-01-29T03:48:52;94715.44;;;0.77;100.00
9774;BME280;4926;42.670;23.316;2023-01-29T03:51:25;94709.19;;;0.78;100.00
9774;BME280;4926;42.670;23.316;2023-01-29T03:54:04;94712.22;;;0.75;100.00
9774;BME280;4926;42.670;23.316;2023-01-29T03:56:38;94711.72;;;0.85;100.00
9774;BME280;4926;42.670;23.316;2023-01-29T03:59:18;94722.53;;;0.88;100.00
9774;BME280;4926;42.670;23.316;2023-01-29T04:01:50;94712.88;;;0.89;100.00
9774;BME280;4926;42.670;23.316;2023-01-29T04:04:23;94709.66;;;0.87;100.00
9774;BME280;4926;42.670;23.316;2023-01-29T04:06:51;94713.53;;;0.84;100.00
9774;BME280;4926;42.670;23.316;2023-01-29T04:09:23;94714.56;;;0.83;100.00
9774;BME280;4926;42.670;23.316;2023-01-29T04:12:00;94713.66;;;0.89;100.00
9774;BME280;4926;42.670;23.316;2023-01-29T04:14:28;94722.91;;;0.92;100.00
9774;BME280;4926;42.670;23.316;2023-01-29T04:17:00;94723.06;;;0.79;100.00
9774;BME280;4926;42.670;23.316;2023-01-29T04:19:30;94720.66;;;0.77;100.00
9774;BME280;4926;42.670;23.316;2023-01-29T04:22:02;94722.94;;;0.74;100.00
9774;BME280;4926;42.670;23.316;2023-01-29T04:24:41;94727.66;;;0.83;100.00
9774;BME280;4926;42.670;23.316;2023-01-29T04:27:18;94717.03;;;0.78;100.00
9774;BME280;4926;42.670;23.316;2023-01-29T04:29:56;94727.94;;;0.75;100.00
9774;BME280;4926;42.670;23.316;2023-01-29T04:32:33;94727.22;;;0.68;100.00
9774;BME280;4926;42.670;23.316;2023-01-29T04:35:13;94725.31;;;0.75;100.00
9774;BME280;4926;42.670;23.316;2023-01-29T04:37:51;94734.44;;;0.73;100.00
9774;BME280;4926;42.670;23.316;2023-01-29T04:40:25;94728.50;;;0.66;100.00
9774;BME280;4926;42.670;23.316;2023-01-29T04:43:02;94732.19;;;0.76;100.00
9774;BME280;4926;42.670;23.316;2023-01-29T04:45:42;94733.19;;;0.75;100.00
9774;BME280;4926;42.670;23.316;2023-01-29T04:48:36;94734.34;;;0.79;100.00
9774;BME280;4926;42.670;23.316;2023-01-29T04:51:12;94732.44;;;0.86;100.00
9774;BME280;4926;42.670;23.316;2023-01-29T04:53:45;94726.81;;;0.71;100.00
9774;BME280;4926;42.670;23.316;2023-01-29T04:56:22;94742.88;;;0.75;100.00
9774;BME280;4926;42.670;23.316;2023-01-29T04:58:54;94732.75;;;0.78;100.00
9774;BME280;4926;42.670;23.316;2023-01-29T05:01:30;94731.16;;;0.77;100.00
9774;BME280;4926;42.670;23.316;2023-01-29T05:04:01;94742.91;;;0.86;100.00
9774;BME280;4926;42.670;23.316;2023-01-29T05:06:31;94738.59;;;0.80;100.00
9774;BME280;4926;42.670;23.316;2023-01-29T05:08:59;94736.72;;;0.69;100.00
9774;BME280;4926;42.670;23.316;2023-01-29T05:11:27;94729.59;;;0.58;100.00
9774;BME280;4926;42.670;23.316;2023-01-29T05:13:55;94728.28;;;0.49;100.00
9774;BME280;4926;42.670;23.316;2023-01-29T05:16:25;94747.06;;;0.64;100.00
9774;BME280;4926;42.670;23.316;2023-01-29T05:18:53;94740.88;;;0.41;100.00
9774;BME280;4926;42.670;23.316;2023-01-29T05:21:22;94747.13;;;0.58;100.00
9774;BME280;4926;42.670;23.316;2023-01-29T05:24:06;94744.72;;;0.56;100.00
9774;BME280;4926;42.670;23.316;2023-01-29T05:26:33;94752.41;;;0.69;100.00
9774;BME280;4926;42.670;23.316;2023-01-29T05:29:20;94754.59;;;0.72;100.00
9774;BME280;4926;42.670;23.316;2023-01-29T05:31:47;94757.78;;;0.74;100.00
9774;BME280;4926;42.670;23.316;2023-01-29T05:34:19;94762.22;;;0.74;100.00
9774;BME280;4926;42.670;23.316;2023-01-29T05:36:46;94765.78;;;0.79;100.00
9774;BME280;4926;42.670;23.316;2023-01-29T05:39:14;94764.34;;;0.65;100.00
9774;BME280;4926;42.670;23.316;2023-01-29T05:41:40;94764.13;;;0.67;100.00
9774;BME280;4926;42.670;23.316;2023-01-29T05:44:08;94761.88;;;0.70;100.00
9774;BME280;4926;42.670;23.316;2023-01-29T05:46:37;94763.53;;;0.65;100.00
9774;BME280;4926;42.670;23.316;2023-01-29T05:49:04;94769.59;;;0.65;100.00
9774;BME280;4926;42.670;23.316;2023-01-29T05:51:30;94765.59;;;0.63;100.00
9774;BME280;4926;42.670;23.316;2023-01-29T05:54:00;94765.09;;;0.54;100.00
9774;BME280;4926;42.670;23.316;2023-01-29T05:56:28;94772.06;;;0.60;100.00
9774;BME280;4926;42.670;23.316;2023-01-29T05:58:55;94769.00;;;0.63;100.00
9774;BME280;4926;42.670;23.316;2023-01-29T06:01:23;94772.88;;;0.61;100.00
9774;BME280;4926;42.670;23.316;2023-01-29T06:03:50;94779.47;;;0.63;100.00
9774;BME280;4926;42.670;23.316;2023-01-29T06:06:17;94777.66;;;0.64;100.00
9774;BME280;4926;42.670;23.316;2023-01-29T06:08:44;94778.47;;;0.64;100.00
9774;BME280;4926;42.670;23.316;2023-01-29T06:11:14;94778.91;;;0.61;100.00
9774;BME280;4926;42.670;23.316;2023-01-29T06:13:44;94783.19;;;0.74;100.00
9774;BME280;4926;42.670;23.316;2023-01-29T06:16:12;94795.63;;;0.78;100.00
9774;BME280;4926;42.670;23.316;2023-01-29T06:18:44;94796.63;;;0.77;100.00
9774;BME280;4926;42.670;23.316;2023-01-29T06:21:13;94798.13;;;0.73;100.00
9774;BME280;4926;42.670;23.316;2023-01-29T06:23:40;94800.88;;;0.78;100.00
9774;BME280;4926;42.670;23.316;2023-01-29T06:26:11;94796.63;;;0.77;100.00
9774;BME280;4926;42.670;23.316;2023-01-29T06:28:41;94806.97;;;0.72;100.00
9774;BME280;4926;42.670;23.316;2023-01-29T06:31:09;94813.84;;;0.73;100.00
9774;BME280;4926;42.670;23.316;2023-01-29T06:33:36;94811.56;;;0.77;100.00
9774;BME280;4926;42.670;23.316;2023-01-29T06:36:06;94820.97;;;0.66;100.00
9774;BME280;4926;42.670;23.316;2023-01-29T06:38:33;94812.31;;;0.66;100.00
9774;BME280;4926;42.670;23.316;2023-01-29T06:41:07;94817.19;;;0.80;100.00
9774;BME280;4926;42.670;23.316;2023-01-29T06:43:36;94826.75;;;0.86;100.00
9774;BME280;4926;42.670;23.316;2023-01-29T06:46:03;94824.22;;;0.80;100.00
9774;BME280;4926;42.670;23.316;2023-01-29T06:48:33;94824.47;;;0.78;100.00
9774;BME280;4926;42.670;23.316;2023-01-29T06:51:01;94837.09;;;0.81;100.00
9774;BME280;4926;42.670;23.316;2023-01-29T06:53:28;94831.41;;;0.84;100.00
9774;BME280;4926;42.670;23.316;2023-01-29T06:55:55;94823.28;;;0.92;100.00
9774;BME280;4926;42.670;23.316;2023-01-29T06:58:22;94831.13;;;0.92;100.00
9774;BME280;4926;42.670;23.316;2023-01-29T07:00:48;94838.41;;;0.90;100.00
9774;BME280;4926;42.670;23.316;2023-01-29T07:03:15;94834.84;;;1.03;100.00
9774;BME280;4926;42.670;23.316;2023-01-29T07:05:49;94840.31;;;1.01;100.00
9774;BME280;4926;42.670;23.316;2023-01-29T07:08:15;94837.50;;;1.14;100.00
9774;BME280;4926;42.670;23.316;2023-01-29T07:10:45;94826.75;;;1.04;100.00
9774;BME280;4926;42.670;23.316;2023-01-29T07:13:12;94842.75;;;1.14;100.00
9774;BME280;4926;42.670;23.316;2023-01-29T07:15:39;94846.41;;;1.13;100.00
9774;BME280;4926;42.670;23.316;2023-01-29T07:18:09;94836.69;;;1.14;100.00
9774;BME280;4926;42.670;23.316;2023-01-29T07:20:38;94850.09;;;1.06;100.00
9774;BME280;4926;42.670;23.316;2023-01-29T07:23:07;94859.28;;;1.15;100.00
9774;BME280;4926;42.670;23.316;2023-01-29T07:25:35;94855.63;;;1.16;100.00
9774;BME280;4926;42.670;23.316;2023-01-29T07:28:03;94864.44;;;1.22;100.00
9774;BME280;4926;42.670;23.316;2023-01-29T07:30:30;94864.44;;;1.22;100.00
9774;BME280;4926;42.670;23.316;2023-01-29T07:33:02;94862.38;;;1.24;100.00
9774;BME280;4926;42.670;23.316;2023-01-29T07:35:29;94868.50;;;1.17;100.00
9774;BME280;4926;42.670;23.316;2023-01-29T07:37:58;94864.66;;;1.20;100.00
9774;BME280;4926;42.670;23.316;2023-01-29T07:40:29;94868.22;;;1.26;100.00
9774;BME280;4926;42.670;23.316;2023-01-29T07:42:57;94864.69;;;1.32;100.00
9774;BME280;4926;42.670;23.316;2023-01-29T07:45:27;94861.78;;;1.40;100.00
9774;BME280;4926;42.670;23.316;2023-01-29T07:47:57;94871.22;;;1.41;100.00
9774;BME280;4926;42.670;23.316;2023-01-29T07:50:36;94880.88;;;1.29;100.00
9774;BME280;4926;42.670;23.316;2023-01-29T07:53:05;94868.78;;;1.28;100.00
9774;BME280;4926;42.670;23.316;2023-01-29T07:55:36;94875.88;;;1.39;100.00
9774;BME280;4926;42.670;23.316;2023-01-29T07:58:05;94873.13;;;1.34;100.00
9774;BME280;4926;42.670;23.316;2023-01-29T08:00:32;94877.06;;;1.43;100.00
9774;BME280;4926;42.670;23.316;2023-01-29T08:03:04;94877.88;;;1.43;100.00
9774;BME280;4926;42.670;23.316;2023-01-29T08:05:35;94876.69;;;1.39;100.00
9774;BME280;4926;42.670;23.316;2023-01-29T08:08:02;94878.38;;;1.34;100.00
9774;BME280;4926;42.670;23.316;2023-01-29T08:10:29;94877.22;;;1.30;100.00
9774;BME280;4926;42.670;23.316;2023-01-29T08:12:58;94880.88;;;1.29;100.00
9774;BME280;4926;42.670;23.316;2023-01-29T08:15:26;94872.28;;;1.22;100.00
9774;BME280;4926;42.670;23.316;2023-01-29T08:17:53;94877.84;;;1.13;100.00
9774;BME280;4926;42.670;23.316;2023-01-29T08:20:21;94881.47;;;1.12;100.00
9774;BME280;4926;42.670;23.316;2023-01-29T08:22:48;94885.84;;;1.19;100.00
9774;BME280;4926;42.670;23.316;2023-01-29T08:25:19;94884.09;;;1.12;100.00
9774;BME280;4926;42.670;23.316;2023-01-29T08:27:46;94887.88;;;1.17;100.00
9774;BME280;4926;42.670;23.316;2023-01-29T08:30:14;94891.97;;;1.12;100.00
9774;BME280;4926;42.670;23.316;2023-01-29T08:32:41;94889.13;;;1.14;100.00
9774;BME280;4926;42.670;23.316;2023-01-29T08:35:08;94889.06;;;1.21;100.00
9774;BME280;4926;42.670;23.316;2023-01-29T08:37:35;94877.03;;;1.13;100.00
9774;BME280;4926;42.670;23.316;2023-01-29T08:40:02;94896.03;;;1.08;100.00
9774;BME280;4926;42.670;23.316;2023-01-29T08:42:28;94898.66;;;1.08;100.00
9774;BME280;4926;42.670;23.316;2023-01-29T08:44:55;94897.19;;;1.12;100.00
9774;BME280;4926;42.670;23.316;2023-01-29T08:47:23;94911.72;;;1.15;100.00
9774;BME280;4926;42.670;23.316;2023-01-29T08:49:53;94900.13;;;1.04;100.00
9774;BME280;4926;42.670;23.316;2023-01-29T08:52:19;94911.22;;;1.06;100.00
9774;BME280;4926;42.670;23.316;2023-01-29T08:54:46;94909.22;;;1.20;100.00
9774;BME280;4926;42.670;23.316;2023-01-29T08:57:15;94918.44;;;1.23;100.00
9774;BME280;4926;42.670;23.316;2023-01-29T08:59:42;94921.44;;;1.26;100.00
9774;BME280;4926;42.670;23.316;2023-01-29T09:02:12;94926.16;;;1.36;100.00
9774;BME280;4926;42.670;23.316;2023-01-29T09:04:40;94928.34;;;1.39;100.00
9774;BME280;4926;42.670;23.316;2023-01-29T09:07:06;94931.41;;;1.36;100.00
9774;BME280;4926;42.670;23.316;2023-01-29T09:09:33;94923.69;;;1.23;100.00
9774;BME280;4926;42.670;23.316;2023-01-29T09:12:00;94931.88;;;1.14;100.00
9774;BME280;4926;42.670;23.316;2023-01-29T09:14:26;94912.84;;;1.19;100.00
9774;BME280;4926;42.670;23.316;2023-01-29T09:16:53;94929.38;;;1.20;100.00
9774;BME280;4926;42.670;23.316;2023-01-29T09:19:20;94915.81;;;1.23;100.00
9774;BME280;4926;42.670;23.316;2023-01-29T09:21:48;94913.56;;;1.26;100.00
9774;BME280;4926;42.670;23.316;2023-01-29T09:24:15;94915.81;;;1.41;100.00
9774;BME280;4926;42.670;23.316;2023-01-29T09:26:48;94916.41;;;1.43;100.00
9774;BME280;4926;42.670;23.316;2023-01-29T09:29:14;94923.03;;;1.45;100.00
9774;BME280;4926;42.670;23.316;2023-01-29T09:31:41;94923.03;;;1.45;100.00
9774;BME280;4926;42.670;23.316;2023-01-29T09:34:10;94926.53;;;1.39;100.00
9774;BME280;4926;42.670;23.316;2023-01-29T09:36:38;94915.06;;;1.52;100.00
9774;BME280;4926;42.670;23.316;2023-01-29T09:39:06;94915.72;;;1.47;100.00
9774;BME280;4926;42.670;23.316;2023-01-29T09:41:44;94910.41;;;1.54;100.00
9774;BME280;4926;42.670;23.316;2023-01-29T09:44:19;94909.59;;;1.53;100.00
9774;BME280;4926;42.670;23.316;2023-01-29T09:46:50;94909.50;;;1.60;100.00
9774;BME280;4926;42.670;23.316;2023-01-29T09:49:23;94908.78;;;1.53;100.00
9774;BME280;4926;42.670;23.316;2023-01-29T09:51:54;94905.03;;;1.49;100.00
9774;BME280;4926;42.670;23.316;2023-01-29T09:54:29;94892.78;;;1.43;100.00
9774;BME280;4926;42.670;23.316;2023-01-29T09:56:57;94903.72;;;1.40;100.00
9774;BME280;4926;42.670;23.316;2023-01-29T09:59:26;94911.38;;;1.41;100.00
9774;BME280;4926;42.670;23.316;2023-01-29T10:02:03;94896.00;;;1.45;100.00
9774;BME280;4926;42.670;23.316;2023-01-29T10:04:44;94897.28;;;1.54;100.00
9774;BME280;4926;42.670;23.316;2023-01-29T10:07:35;94891.00;;;1.55;100.00
9774;BME280;4926;42.670;23.316;2023-01-29T10:10:20;94899.34;;;1.34;100.00
9774;BME280;4926;42.670;23.316;2023-01-29T10:12:58;94886.84;;;1.36;100.00
9774;BME280;4926;42.670;23.316;2023-01-29T10:15:41;94896.16;;;1.32;100.00
9774;BME280;4926;42.670;23.316;2023-01-29T10:18:36;94888.97;;;1.27;100.00
9774;BME280;4926;42.670;23.316;2023-01-29T10:21:17;94881.47;;;1.31;100.00
9774;BME280;4926;42.670;23.316;2023-01-29T10:23:53;94881.97;;;1.21;100.00
9774;BME280;4926;42.670;23.316;2023-01-29T10:26:27;94871.56;;;1.33;100.00
9774;BME280;4926;42.670;23.316;2023-01-29T10:28:55;94880.25;;;1.45;100.00
9774;BME280;4926;42.670;23.316;2023-01-29T10:31:28;94882.63;;;1.35;100.00
9774;BME280;4926;42.670;23.316;2023-01-29T10:33:59;94870.38;;;1.29;100.00
9774;BME280;4926;42.670;23.316;2023-01-29T10:36:33;94867.91;;;1.34;100.00
9774;BME280;4926;42.670;23.316;2023-01-29T10:39:01;94872.69;;;1.37;100.00
9774;BME280;4926;42.670;23.316;2023-01-29T10:41:42;94868.63;;;1.23;100.00
9774;BME280;4926;42.670;23.316;2023-01-29T10:44:22;94871.09;;;1.36;100.00
9774;BME280;4926;42.670;23.316;2023-01-29T10:47:03;94868.16;;;1.44;100.00
9774;BME280;4926;42.670;23.316;2023-01-29T10:49:59;94876.97;;;1.49;100.00
9774;BME280;4926;42.670;23.316;2023-01-29T10:52:38;94869.72;;;1.33;100.00
9774;BME280;4926;42.670;23.316;2023-01-29T10:55:21;94859.91;;;1.29;100.00
9774;BME280;4926;42.670;23.316;2023-01-29T10:58:01;94859.22;;;1.33;100.00
9774;BME280;4926;42.670;23.316;2023-01-29T11:00:35;94864.69;;;1.32;100.00
9774;BME280;4926;42.670;23.316;2023-01-29T11:03:14;94852.34;;;1.21;100.00
9774;BME280;4926;42.670;23.316;2023-01-29T11:05:48;94859.91;;;1.29;100.00
9774;BME280;4926;42.670;23.316;2023-01-29T11:08:20;94848.25;;;1.25;100.00
9774;BME280;4926;42.670;23.316;2023-01-29T11:10:52;94858.59;;;1.20;100.00
9774;BME280;4926;42.670;23.316;2023-01-29T11:13:24;94858.00;;;1.17;100.00
9774;BME280;4926;42.670;23.316;2023-01-29T11:15:54;94851.91;;;1.24;100.00
9774;BME280;4926;42.670;23.316;2023-01-29T11:18:52;94849.31;;;1.35;100.00
9774;BME280;4926;42.670;23.316;2023-01-29T11:21:19;94851.88;;;1.42;100.00
9774;BME280;4926;42.670;23.316;2023-01-29T11:23:46;94856.31;;;1.41;100.00
9774;BME280;4926;42.670;23.316;2023-01-29T11:26:17;94837.16;;;1.23;100.00
9774;BME280;4926;42.670;23.316;2023-01-29T11:28:49;94841.22;;;1.37;100.00
9774;BME280;4926;42.670;23.316;2023-01-29T11:31:18;94836.16;;;1.24;100.00
9774;BME280;4926;42.670;23.316;2023-01-29T11:33:46;94830.38;;;1.33;100.00
9774;BME280;4926;42.670;23.316;2023-01-29T11:36:35;94824.59;;;1.43;100.00
9774;BME280;4926;42.670;23.316;2023-01-29T11:39:14;94825.59;;;1.30;100.00
9774;BME280;4926;42.670;23.316;2023-01-29T11:41:49;94816.72;;;1.31;100.00
9774;BME280;4926;42.670;23.316;2023-01-29T11:44:21;94810.31;;;1.39;100.00
9774;BME280;4926;42.670;23.316;2023-01-29T11:46:51;94808.09;;;1.54;100.00
9774;BME280;4926;42.670;23.316;2023-01-29T11:49:30;94799.31;;;1.60;100.00
9774;BME280;4926;42.670;23.316;2023-01-29T11:52:00;94804.25;;;1.68;100.00
9774;BME280;4926;42.670;23.316;2023-01-29T11:54:31;94812.03;;;1.74;100.00
9774;BME280;4926;42.670;23.316;2023-01-29T11:57:00;94811.44;;;1.61;100.00
9774;BME280;4926;42.670;23.316;2023-01-29T11:59:40;94799.09;;;1.61;100.00
9774;BME280;4926;42.670;23.316;2023-01-29T12:02:20;94800.34;;;1.59;100.00
9774;BME280;4926;42.670;23.316;2023-01-29T12:04:51;94806.88;;;1.68;100.00
9774;BME280;4926;42.670;23.316;2023-01-29T12:07:19;94803.56;;;1.72;100.00
9774;BME280;4926;42.670;23.316;2023-01-29T12:09:51;94791.84;;;1.75;100.00
9774;BME280;4926;42.670;23.316;2023-01-29T12:12:31;94795.34;;;1.80;100.00
9774;BME280;4926;42.670;23.316;2023-01-29T12:15:16;94794.34;;;1.93;100.00
9774;BME280;4926;42.670;23.316;2023-01-29T12:17:57;94796.28;;;1.86;100.00
9774;BME280;4926;42.670;23.316;2023-01-29T12:20:32;94801.75;;;1.84;100.00
9774;BME280;4926;42.670;23.316;2023-01-29T12:23:05;94796.94;;;1.70;100.00
9774;BME280;4926;42.670;23.316;2023-01-29T12:25:44;94792.84;;;1.62;100.00
9774;BME280;4926;42.670;23.316;2023-01-29T12:28:22;94801.00;;;1.54;100.00
9774;BME280;4926;42.670;23.316;2023-01-29T12:31:07;94798.97;;;1.56;100.00
9774;BME280;4926;42.670;23.316;2023-01-29T12:33:42;94804.31;;;1.50;100.00
9774;BME280;4926;42.670;23.316;2023-01-29T12:36:14;94791.91;;;1.45;100.00
9774;BME280;4926;42.670;23.316;2023-01-29T12:38:44;94799.66;;;1.52;100.00
9774;BME280;4926;42.670;23.316;2023-01-29T12:41:34;94805.03;;;1.57;100.00
9774;BME280;4926;42.670;23.316;2023-01-29T12:44:10;94796.47;;;1.61;100.00
9774;BME280;4926;42.670;23.316;2023-01-29T12:46:43;94797.09;;;1.75;100.00
9774;BME280;4926;42.670;23.316;2023-01-29T12:49:16;94805.97;;;1.74;100.00
9774;BME280;4926;42.670;23.316;2023-01-29T12:51:51;94797.50;;;1.72;100.00
9774;BME280;4926;42.670;23.316;2023-01-29T12:54:30;94810.31;;;1.80;100.00
9774;BME280;4926;42.670;23.316;2023-01-29T12:57:00;94807.22;;;1.71;100.00
9774;BME280;4926;42.670;23.316;2023-01-29T12:59:34;94787.66;;;1.56;100.00
9774;BME280;4926;42.670;23.316;2023-01-29T13:02:12;94811.44;;;1.61;100.00
9774;BME280;4926;42.670;23.316;2023-01-29T13:04:44;94798.16;;;1.56;100.00
9774;BME280;4926;42.670;23.316;2023-01-29T13:07:19;94807.53;;;1.52;100.00
9774;BME280;4926;42.670;23.316;2023-01-29T13:09:51;94787.53;;;1.39;100.00
9774;BME280;4926;42.670;23.316;2023-01-29T13:12:20;94797.16;;;1.45;100.00
9774;BME280;4926;42.670;23.316;2023-01-29T13:14:53;94796.91;;;1.47;100.00
9774;BME280;4926;42.670;23.316;2023-01-29T13:17:25;94798.03;;;1.51;100.00
9774;BME280;4926;42.670;23.316;2023-01-29T13:19:57;94787.66;;;1.56;100.00
9774;BME280;4926;42.670;23.316;2023-01-29T13:22:25;94792.13;;;1.55;100.00
9774;BME280;4926;42.670;23.316;2023-01-29T13:24:56;94797.84;;;1.52;100.00
9774;BME280;4926;42.670;23.316;2023-01-29T13:27:27;94795.88;;;1.48;100.00
9774;BME280;4926;42.670;23.316;2023-01-29T13:29:55;94789.94;;;1.41;100.00
9774;BME280;4926;42.670;23.316;2023-01-29T13:32:26;94802.75;;;1.49;100.00
9774;BME280;4926;42.670;23.316;2023-01-29T13:34:57;94797.97;;;1.57;100.00
9774;BME280;4926;42.670;23.316;2023-01-29T13:37:32;94802.06;;;1.65;100.00
9774;BME280;4926;42.670;23.316;2023-01-29T13:40:00;94808.47;;;1.69;100.00
9774;BME280;4926;42.670;23.316;2023-01-29T13:42:41;94811.50;;;1.54;100.00